sensor_id;sensor_type;location;lat;lon;timestamp;pressure;altitude;pressure_sealevel;temperature;humidity
76358;BME280;65185;21.060;105.826;2024-03-02T00:00:39;102446.06;;;14.49;93.23
76358;BME280;65185;21.060;105.826;2024-03-02T00:03:07;102439.09;;;14.46;93.43
76358;BME280;65185;21.060;105.826;2024-03-02T00:05:35;102447.78;;;14.47;92.92
76358;BME280;65185;21.060;105.826;2024-03-02T00:08:05;102447.78;;;14.48;92.23
76358;BME280;65185;21.060;105.826;2024-03-02T00:10:39;102452.16;;;14.49;92.48
76358;BME280;65185;21.060;105.826;2024-03-02T00:13:07;102456.50;;;14.49;92.59
76358;BME280;65185;21.060;105.826;2024-03-02T00:15:48;102459.09;;;14.49;92.19
76358;BME280;65185;21.060;105.826;2024-03-02T00:18:32;102479.06;;;14.48;91.69
76358;BME280;65185;21.060;105.826;2024-03-02T00:21:00;102477.31;;;14.43;91.75
76358;BME280;65185;21.060;105.826;2024-03-02T00:23:33;102480.78;;;14.43;92.21
76358;BME280;65185;21.060;105.826;2024-03-02T00:26:01;102479.91;;;14.41;92.70
76358;BME280;65185;21.060;105.826;2024-03-02T00:28:30;102480.78;;;14.42;92.59
76358;BME280;65185;21.060;105.826;2024-03-02T00:31:07;102486.91;;;14.45;92.77
76358;BME280;65185;21.060;105.826;2024-03-02T00:33:42;102490.38;;;14.46;92.62
76358;BME280;65185;21.060;105.826;2024-03-02T00:36:10;102499.94;;;14.47;91.86
76358;BME280;65185;21.060;105.826;2024-03-02T00:38:51;102500.81;;;14.49;91.53
76358;BME280;65185;21.060;105.826;2024-03-02T00:41:24;102495.59;;;14.47;92.36
76358;BME280;65185;21.060;105.826;2024-03-02T00:46:34;102519.97;;;14.51;92.42
76358;BME280;65185;21.060;105.826;2024-03-02T00:49:11;102528.63;;;14.48;92.52
76358;BME280;65185;21.060;105.826;2024-03-02T00:51:39;102528.63;;;14.45;93.04
76358;BME280;65185;21.060;105.826;2024-03-02T00:54:08;102535.56;;;14.43;94.05
76358;BME280;65185;21.060;105.826;2024-03-02T00:56:36;102540.78;;;14.43;95.17
76358;BME280;65185;21.060;105.826;2024-03-02T00:59:02;102540.75;;;14.39;96.19
76358;BME280;65185;21.060;105.826;2024-03-02T01:01:29;102545.09;;;14.38;96.63
76358;BME280;65185;21.060;105.826;2024-03-02T01:03:56;102539.81;;;14.34;96.42
76358;BME280;65185;21.060;105.826;2024-03-02T01:06:23;102550.25;;;14.34;97.19
76358;BME280;65185;21.060;105.826;2024-03-02T01:08:49;102555.44;;;14.31;97.83
76358;BME280;65185;21.060;105.826;2024-03-02T01:11:18;102556.28;;;14.28;98.01
76358;BME280;65185;21.060;105.826;2024-03-02T01:13:46;102565.00;;;14.30;97.63
76358;BME280;65185;21.060;105.826;2024-03-02T01:16:13;102559.81;;;14.33;98.81
76358;BME280;65185;21.060;105.826;2024-03-02T01:18:41;102558.03;;;14.29;99.45
76358;BME280;65185;21.060;105.826;2024-03-02T01:21:08;102571.97;;;14.33;99.62
76358;BME280;65185;21.060;105.826;2024-03-02T01:23:35;102571.16;;;14.35;99.50
76358;BME280;65185;21.060;105.826;2024-03-02T01:26:02;102563.34;;;14.40;98.46
76358;BME280;65185;21.060;105.826;2024-03-02T01:28:29;102571.16;;;14.40;98.55
76358;BME280;65185;21.060;105.826;2024-03-02T01:30:55;102578.16;;;14.42;97.93
76358;BME280;65185;21.060;105.826;2024-03-02T01:33:22;102577.28;;;14.43;98.46
76358;BME280;65185;21.060;105.826;2024-03-02T01:35:49;102582.47;;;14.40;97.55
76358;BME280;65185;21.060;105.826;2024-03-02T01:38:19;102586.00;;;14.44;97.54
76358;BME280;65185;21.060;105.826;2024-03-02T01:40:47;102579.94;;;14.46;97.50
76358;BME280;65185;21.060;105.826;2024-03-02T01:43:14;102579.09;;;14.50;96.96
76358;BME280;65185;21.060;105.826;2024-03-02T01:45:41;102575.63;;;14.53;96.66
76358;BME280;65185;21.060;105.826;2024-03-02T01:48:08;102580.84;;;14.53;95.88
76358;BME280;65185;21.060;105.826;2024-03-02T01:50:35;102581.72;;;14.52;96.31
76358;BME280;65185;21.060;105.826;2024-03-02T01:53:02;102586.97;;;14.53;95.44
76358;BME280;65185;21.060;105.826;2024-03-02T01:55:29;102595.66;;;14.55;95.12
76358;BME280;65185;21.060;105.826;2024-03-02T01:57:56;102598.28;;;14.55;95.00
76358;BME280;65185;21.060;105.826;2024-03-02T02:00:24;102595.63;;;14.51;94.93
76358;BME280;65185;21.060;105.826;2024-03-02T02:02:52;102594.78;;;14.55;95.55
76358;BME280;65185;21.060;105.826;2024-03-02T02:05:20;102600.91;;;14.57;95.19
76358;BME280;65185;21.060;105.826;2024-03-02T02:07:46;102598.28;;;14.58;95.20
76358;BME280;65185;21.060;105.826;2024-03-02T02:10:13;102603.53;;;14.61;95.30
76358;BME280;65185;21.060;105.826;2024-03-02T02:12:40;102601.81;;;14.62;94.77
76358;BME280;65185;21.060;105.826;2024-03-02T02:15:27;102602.69;;;14.61;93.59
76358;BME280;65185;21.060;105.826;2024-03-02T02:17:57;102602.69;;;14.61;92.91
76358;BME280;65185;21.060;105.826;2024-03-02T02:20:27;102598.34;;;14.64;93.17
76358;BME280;65185;21.060;105.826;2024-03-02T02:23:00;102603.59;;;14.66;93.37
76358;BME280;65185;21.060;105.826;2024-03-02T02:25:28;102589.66;;;14.65;93.17
76358;BME280;65185;21.060;105.826;2024-03-02T02:27:55;102580.97;;;14.66;93.13
76358;BME280;65185;21.060;105.826;2024-03-02T02:30:28;102584.50;;;14.71;93.00
76358;BME280;65185;21.060;105.826;2024-03-02T02:32:56;102588.00;;;14.75;92.66
76358;BME280;65185;21.060;105.826;2024-03-02T02:35:22;102584.50;;;14.76;91.47
76358;BME280;65185;21.060;105.826;2024-03-02T02:37:52;102589.78;;;14.80;91.48
76358;BME280;65185;21.060;105.826;2024-03-02T02:40:20;102580.22;;;14.81;91.40
76358;BME280;65185;21.060;105.826;2024-03-02T02:42:47;102573.28;;;14.84;90.86
76358;BME280;65185;21.060;105.826;2024-03-02T02:45:18;102575.03;;;14.85;90.26
76358;BME280;65185;21.060;105.826;2024-03-02T02:47:45;102573.31;;;14.87;90.56
76358;BME280;65185;21.060;105.826;2024-03-02T02:50:12;102566.31;;;14.83;90.44
76358;BME280;65185;21.060;105.826;2024-03-02T02:52:40;102573.31;;;14.89;90.44
76358;BME280;65185;21.060;105.826;2024-03-02T02:55:11;102573.34;;;14.92;90.28
76358;BME280;65185;21.060;105.826;2024-03-02T02:57:40;102571.59;;;14.92;90.62
76358;BME280;65185;21.060;105.826;2024-03-02T03:00:15;102569.03;;;14.95;90.47
76358;BME280;65185;21.060;105.826;2024-03-02T03:02:48;102562.03;;;14.94;89.86
76358;BME280;65185;21.060;105.826;2024-03-02T03:05:15;102559.38;;;14.85;89.16
76358;BME280;65185;21.060;105.826;2024-03-02T03:07:45;102562.88;;;14.90;89.13
76358;BME280;65185;21.060;105.826;2024-03-02T03:10:14;102565.53;;;14.93;89.31
76358;BME280;65185;21.060;105.826;2024-03-02T03:12:41;102563.81;;;14.97;89.22
76358;BME280;65185;21.060;105.826;2024-03-02T03:15:15;102552.53;;;14.99;88.72
76358;BME280;65185;21.060;105.826;2024-03-02T03:17:45;102546.44;;;15.03;88.55
76358;BME280;65185;21.060;105.826;2024-03-02T03:20:14;102542.09;;;15.06;88.29
76358;BME280;65185;21.060;105.826;2024-03-02T03:22:44;102547.31;;;15.06;88.03
76358;BME280;65185;21.060;105.826;2024-03-02T03:25:13;102545.59;;;15.08;87.62
76358;BME280;65185;21.060;105.826;2024-03-02T03:27:40;102537.75;;;15.06;87.46
76358;BME280;65185;21.060;105.826;2024-03-02T03:30:07;102542.97;;;15.08;87.61
76358;BME280;65185;21.060;105.826;2024-03-02T03:32:34;102530.81;;;15.08;87.52
76358;BME280;65185;21.060;105.826;2024-03-02T03:35:01;102532.56;;;15.14;87.93
76358;BME280;65185;21.060;105.826;2024-03-02T03:37:28;102529.97;;;15.14;87.67
76358;BME280;65185;21.060;105.826;2024-03-02T03:40:02;102524.75;;;15.14;87.96
76358;BME280;65185;21.060;105.826;2024-03-02T03:42:38;102524.75;;;15.14;88.03
76358;BME280;65185;21.060;105.826;2024-03-02T03:45:08;102524.75;;;15.14;87.14
76358;BME280;65185;21.060;105.826;2024-03-02T03:47:38;102513.41;;;15.13;86.73
76358;BME280;65185;21.060;105.826;2024-03-02T03:50:07;102505.59;;;15.13;86.96
76358;BME280;65185;21.060;105.826;2024-03-02T03:52:34;102505.59;;;15.15;86.96
76358;BME280;65185;21.060;105.826;2024-03-02T03:55:01;102498.63;;;15.17;86.98
76358;BME280;65185;21.060;105.826;2024-03-02T03:57:28;102493.41;;;15.17;86.19
76358;BME280;65185;21.060;105.826;2024-03-02T03:59:57;102488.22;;;15.21;86.71
76358;BME280;65185;21.060;105.826;2024-03-02T04:02:26;102474.28;;;15.22;86.87
76358;BME280;65185;21.060;105.826;2024-03-02T04:04:53;102479.50;;;15.22;86.88
76358;BME280;65185;21.060;105.826;2024-03-02T04:07:19;102467.34;;;15.24;86.94
76358;BME280;65185;21.060;105.826;2024-03-02T04:09:52;102463.84;;;15.22;86.32
76358;BME280;65185;21.060;105.826;2024-03-02T04:12:22;102464.72;;;15.20;86.11
76358;BME280;65185;21.060;105.826;2024-03-02T04:14:54;102455.13;;;15.19;86.40
76358;BME280;65185;21.060;105.826;2024-03-02T04:17:20;102454.28;;;15.20;86.14
76358;BME280;65185;21.060;105.826;2024-03-02T04:19:52;102453.41;;;15.18;87.03
76358;BME280;65185;21.060;105.826;2024-03-02T04:22:21;102453.41;;;15.22;87.16
76358;BME280;65185;21.060;105.826;2024-03-02T04:24:48;102440.34;;;15.24;87.56
76358;BME280;65185;21.060;105.826;2024-03-02T04:27:14;102442.09;;;15.28;87.13
76358;BME280;65185;21.060;105.826;2024-03-02T04:29:41;102443.88;;;15.30;87.39
76358;BME280;65185;21.060;105.826;2024-03-02T04:32:08;102441.25;;;15.35;87.54
76358;BME280;65185;21.060;105.826;2024-03-02T04:34:39;102435.19;;;15.39;87.60
76358;BME280;65185;21.060;105.826;2024-03-02T04:37:06;102433.50;;;15.44;87.69
76358;BME280;65185;21.060;105.826;2024-03-02T04:39:37;102427.41;;;15.43;87.04
76358;BME280;65185;21.060;105.826;2024-03-02T04:42:04;102418.72;;;15.47;86.70
76358;BME280;65185;21.060;105.826;2024-03-02T04:44:31;102419.59;;;15.51;87.38
76358;BME280;65185;21.060;105.826;2024-03-02T04:47:01;102405.66;;;15.58;87.08
76358;BME280;65185;21.060;105.826;2024-03-02T04:49:27;102392.59;;;15.67;86.61
76358;BME280;65185;21.060;105.826;2024-03-02T04:51:57;102384.78;;;15.74;86.72
76358;BME280;65185;21.060;105.826;2024-03-02T04:54:23;102389.13;;;15.80;85.19
76358;BME280;65185;21.060;105.826;2024-03-02T04:56:53;102370.84;;;15.86;84.32
76358;BME280;65185;21.060;105.826;2024-03-02T04:59:22;102355.16;;;15.89;84.15
76358;BME280;65185;21.060;105.826;2024-03-02T05:01:52;102352.53;;;15.95;84.52
76358;BME280;65185;21.060;105.826;2024-03-02T05:04:21;102336.84;;;15.95;83.95
76358;BME280;65185;21.060;105.826;2024-03-02T05:06:48;102335.06;;;16.05;83.55
76358;BME280;65185;21.060;105.826;2024-03-02T05:09:18;102324.63;;;16.11;83.40
76358;BME280;65185;21.060;105.826;2024-03-02T05:11:45;102319.38;;;16.20;82.98
76358;BME280;65185;21.060;105.826;2024-03-02T05:14:30;102310.59;;;16.36;83.16
76358;BME280;65185;21.060;105.826;2024-03-02T05:16:56;102300.13;;;16.46;82.39
76358;BME280;65185;21.060;105.826;2024-03-02T05:19:23;102293.13;;;16.57;81.32
76358;BME280;65185;21.060;105.826;2024-03-02T05:21:51;102280.88;;;16.58;81.48
76358;BME280;65185;21.060;105.826;2024-03-02T05:24:18;102278.22;;;16.70;80.35
76358;BME280;65185;21.060;105.826;2024-03-02T05:26:45;102266.94;;;16.54;81.22
76358;BME280;65185;21.060;105.826;2024-03-02T05:29:11;102267.03;;;16.32;83.20
76358;BME280;65185;21.060;105.826;2024-03-02T05:31:41;102257.50;;;16.19;85.32
76358;BME280;65185;21.060;105.826;2024-03-02T05:34:07;102249.59;;;16.34;83.86
76358;BME280;65185;21.060;105.826;2024-03-02T05:36:34;102243.41;;;16.45;81.81
76358;BME280;65185;21.060;105.826;2024-03-02T05:39:01;102236.44;;;16.55;81.80
76358;BME280;65185;21.060;105.826;2024-03-02T05:41:30;102229.47;;;16.54;80.61
76358;BME280;65185;21.060;105.826;2024-03-02T05:43:57;102228.53;;;16.68;82.65
76358;BME280;65185;21.060;105.826;2024-03-02T05:46:24;102217.97;;;16.79;82.48
76358;BME280;65185;21.060;105.826;2024-03-02T05:48:50;102211.03;;;16.69;81.88
76358;BME280;65185;21.060;105.826;2024-03-02T05:51:17;102204.94;;;16.70;82.10
76358;BME280;65185;21.060;105.826;2024-03-02T05:53:44;102192.69;;;16.76;80.90
76358;BME280;65185;21.060;105.826;2024-03-02T05:56:11;102189.19;;;16.77;80.40
76358;BME280;65185;21.060;105.826;2024-03-02T05:58:38;102184.03;;;16.68;80.57
76358;BME280;65185;21.060;105.826;2024-03-02T06:01:14;102177.03;;;16.67;80.31
76358;BME280;65185;21.060;105.826;2024-03-02T06:03:43;102165.72;;;16.67;80.25
76358;BME280;65185;21.060;105.826;2024-03-02T06:06:10;102159.56;;;16.69;80.11
76358;BME280;65185;21.060;105.826;2024-03-02T06:08:40;102164.91;;;16.53;80.71
76358;BME280;65185;21.060;105.826;2024-03-02T06:11:06;102151.78;;;16.60;81.24
76358;BME280;65185;21.060;105.826;2024-03-02T06:13:35;102141.25;;;16.69;81.33
76358;BME280;65185;21.060;105.826;2024-03-02T06:16:02;102143.91;;;16.66;82.17
76358;BME280;65185;21.060;105.826;2024-03-02T06:18:29;102139.53;;;16.65;81.96
76358;BME280;65185;21.060;105.826;2024-03-02T06:20:56;102129.94;;;16.70;82.29
76358;BME280;65185;21.060;105.826;2024-03-02T06:23:22;102113.38;;;16.64;83.03
76358;BME280;65185;21.060;105.826;2024-03-02T06:25:49;102109.13;;;16.54;82.57
76358;BME280;65185;21.060;105.826;2024-03-02T06:28:16;102099.50;;;16.54;82.56
76358;BME280;65185;21.060;105.826;2024-03-02T06:30:45;102090.75;;;16.58;81.02
76358;BME280;65185;21.060;105.826;2024-03-02T06:33:12;102084.66;;;16.56;80.48
76358;BME280;65185;21.060;105.826;2024-03-02T06:35:38;102078.56;;;16.53;81.33
76358;BME280;65185;21.060;105.826;2024-03-02T06:38:05;102068.09;;;16.54;82.67
76358;BME280;65185;21.060;105.826;2024-03-02T06:40:32;102062.91;;;16.45;82.81
76358;BME280;65185;21.060;105.826;2024-03-02T06:43:00;102072.66;;;16.19;84.63
76358;BME280;65185;21.060;105.826;2024-03-02T06:45:26;102051.72;;;16.25;84.23
76358;BME280;65185;21.060;105.826;2024-03-02T06:47:57;102048.16;;;16.37;84.36
76358;BME280;65185;21.060;105.826;2024-03-02T06:50:26;102048.97;;;16.46;84.13
76358;BME280;65185;21.060;105.826;2024-03-02T06:52:53;102044.56;;;16.53;83.39
76358;BME280;65185;21.060;105.826;2024-03-02T06:55:22;102038.47;;;16.54;82.38
76358;BME280;65185;21.060;105.826;2024-03-02T06:57:52;102035.84;;;16.52;82.35
76358;BME280;65185;21.060;105.826;2024-03-02T07:00:19;102029.75;;;16.53;82.77
76358;BME280;65185;21.060;105.826;2024-03-02T07:02:46;102020.94;;;16.60;82.63
76358;BME280;65185;21.060;105.826;2024-03-02T07:05:16;102025.38;;;16.52;80.43
76358;BME280;65185;21.060;105.826;2024-03-02T07:07:43;102015.78;;;16.51;80.66
76358;BME280;65185;21.060;105.826;2024-03-02T07:10:09;102015.84;;;16.48;80.22
76358;BME280;65185;21.060;105.826;2024-03-02T07:12:36;102009.09;;;16.13;82.21
76358;BME280;65185;21.060;105.826;2024-03-02T07:15:03;102007.22;;;16.27;82.63
76358;BME280;65185;21.060;105.826;2024-03-02T07:17:31;101993.25;;;16.32;81.33
76358;BME280;65185;21.060;105.826;2024-03-02T07:19:58;101981.94;;;16.29;82.00
76358;BME280;65185;21.060;105.826;2024-03-02T07:22:24;101987.16;;;16.33;82.65
76358;BME280;65185;21.060;105.826;2024-03-02T07:24:51;101980.09;;;16.41;83.62
76358;BME280;65185;21.060;105.826;2024-03-02T07:27:18;101976.56;;;16.45;82.82
76358;BME280;65185;21.060;105.826;2024-03-02T07:29:45;101977.44;;;16.50;83.69
76358;BME280;65185;21.060;105.826;2024-03-02T07:32:11;101969.59;;;16.47;84.06
76358;BME280;65185;21.060;105.826;2024-03-02T07:34:41;101975.66;;;16.52;83.93
76358;BME280;65185;21.060;105.826;2024-03-02T07:37:09;101965.25;;;16.46;84.68
76358;BME280;65185;21.060;105.826;2024-03-02T07:39:36;101961.94;;;16.23;86.33
76358;BME280;65185;21.060;105.826;2024-03-02T07:42:03;101952.25;;;16.34;85.43
76358;BME280;65185;21.060;105.826;2024-03-02T07:44:33;101948.72;;;16.38;83.16
76358;BME280;65185;21.060;105.826;2024-03-02T07:46:59;101944.41;;;16.37;80.71
76358;BME280;65185;21.060;105.826;2024-03-02T07:49:26;101940.94;;;16.34;81.00
76358;BME280;65185;21.060;105.826;2024-03-02T07:52:02;101933.06;;;16.37;81.74
76358;BME280;65185;21.060;105.826;2024-03-02T07:54:31;101926.03;;;16.42;82.83
76358;BME280;65185;21.060;105.826;2024-03-02T07:57:01;101920.81;;;16.40;83.92
76358;BME280;65185;21.060;105.826;2024-03-02T07:59:31;101926.84;;;16.45;84.42
76358;BME280;65185;21.060;105.826;2024-03-02T08:01:58;101919.03;;;16.48;84.94
76358;BME280;65185;21.060;105.826;2024-03-02T08:04:25;101917.25;;;16.49;83.38
76358;BME280;65185;21.060;105.826;2024-03-02T08:06:51;101908.59;;;16.41;84.24
76358;BME280;65185;21.060;105.826;2024-03-02T08:09:21;101899.00;;;16.41;84.06
76358;BME280;65185;21.060;105.826;2024-03-02T08:11:48;101908.63;;;16.36;83.22
76358;BME280;65185;21.060;105.826;2024-03-02T08:14:15;101895.91;;;15.98;83.87
76358;BME280;65185;21.060;105.826;2024-03-02T08:16:41;101895.81;;;16.09;84.20
76358;BME280;65185;21.060;105.826;2024-03-02T08:19:08;101889.66;;;16.15;84.63
76358;BME280;65185;21.060;105.826;2024-03-02T08:21:35;101892.41;;;15.99;85.79
76358;BME280;65185;21.060;105.826;2024-03-02T08:24:03;101885.56;;;15.85;87.54
76358;BME280;65185;21.060;105.826;2024-03-02T08:26:30;101869.78;;;15.95;85.94
76358;BME280;65185;21.060;105.826;2024-03-02T08:29:01;101881.88;;;16.07;86.41
76358;BME280;65185;21.060;105.826;2024-03-02T08:31:30;101875.78;;;16.07;87.88
76358;BME280;65185;21.060;105.826;2024-03-02T08:33:58;101871.38;;;16.10;87.99
76358;BME280;65185;21.060;105.826;2024-03-02T08:36:25;101866.13;;;16.16;87.35
76358;BME280;65185;21.060;105.826;2024-03-02T08:38:51;101864.25;;;16.27;87.85
76358;BME280;65185;21.060;105.826;2024-03-02T08:41:18;101863.00;;;15.73;100.00
76358;BME280;65185;21.060;105.826;2024-03-02T08:43:45;101857.44;;;14.75;100.00
76358;BME280;65185;21.060;105.826;2024-03-02T08:46:12;101859.31;;;14.35;100.00
76358;BME280;65185;21.060;105.826;2024-03-02T08:48:39;101859.31;;;13.97;100.00
76358;BME280;65185;21.060;105.826;2024-03-02T08:51:06;101855.84;;;13.58;100.00
76358;BME280;65185;21.060;105.826;2024-03-02T08:53:34;101860.16;;;13.59;100.00
76358;BME280;65185;21.060;105.826;2024-03-02T08:56:04;101861.00;;;13.55;100.00
76358;BME280;65185;21.060;105.826;2024-03-02T08:58:37;101848.84;;;13.36;100.00
76358;BME280;65185;21.060;105.826;2024-03-02T09:01:04;101854.91;;;13.42;100.00
76358;BME280;65185;21.060;105.826;2024-03-02T09:03:36;101849.72;;;13.39;100.00
76358;BME280;65185;21.060;105.826;2024-03-02T09:06:03;101860.94;;;13.07;100.00
76358;BME280;65185;21.060;105.826;2024-03-02T09:08:30;101857.44;;;13.09;100.00
76358;BME280;65185;21.060;105.826;2024-03-02T09:10:57;101859.16;;;13.07;100.00
76358;BME280;65185;21.060;105.826;2024-03-02T09:13:23;101856.53;;;13.01;100.00
76358;BME280;65185;21.060;105.826;2024-03-02T09:15:53;101850.44;;;12.91;100.00
76358;BME280;65185;21.060;105.826;2024-03-02T09:18:22;101855.75;;;13.19;100.00
76358;BME280;65185;21.060;105.826;2024-03-02T09:20:49;101854.91;;;13.32;100.00
76358;BME280;65185;21.060;105.826;2024-03-02T09:23:16;101852.25;;;13.20;100.00
76358;BME280;65185;21.060;105.826;2024-03-02T09:25:42;101847.88;;;13.03;100.00
76358;BME280;65185;21.060;105.826;2024-03-02T09:28:10;101846.19;;;13.24;100.00
76358;BME280;65185;21.060;105.826;2024-03-02T09:30:37;101845.38;;;13.34;100.00
76358;BME280;65185;21.060;105.826;2024-03-02T09:33:04;101855.63;;;12.96;100.00
76358;BME280;65185;21.060;105.826;2024-03-02T09:35:31;101847.88;;;13.05;100.00
76358;BME280;65185;21.060;105.826;2024-03-02T09:37:57;101854.88;;;13.20;100.00
76358;BME280;65185;21.060;105.826;2024-03-02T09:40:27;101849.66;;;13.18;100.00
76358;BME280;65185;21.060;105.826;2024-03-02T09:42:54;101850.47;;;13.00;100.00
76358;BME280;65185;21.060;105.826;2024-03-02T09:45:24;101847.97;;;13.25;100.00
76358;BME280;65185;21.060;105.826;2024-03-02T09:47:52;101848.84;;;13.42;100.00
76358;BME280;65185;21.060;105.826;2024-03-02T09:50:19;101850.53;;;13.17;100.00
76358;BME280;65185;21.060;105.826;2024-03-02T09:52:49;101847.94;;;13.22;100.00
76358;BME280;65185;21.060;105.826;2024-03-02T09:55:19;101845.38;;;13.43;100.00
76358;BME280;65185;21.060;105.826;2024-03-02T09:57:47;101849.75;;;13.45;100.00
76358;BME280;65185;21.060;105.826;2024-03-02T10:00:16;101849.63;;;13.11;100.00
76358;BME280;65185;21.060;105.826;2024-03-02T10:02:44;101841.03;;;13.37;100.00
76358;BME280;65185;21.060;105.826;2024-03-02T10:05:12;101843.69;;;13.51;100.00
76358;BME280;65185;21.060;105.826;2024-03-02T10:07:38;101849.69;;;13.26;100.00
76358;BME280;65185;21.060;105.826;2024-03-02T10:10:15;101836.69;;;13.29;100.00
76358;BME280;65185;21.060;105.826;2024-03-02T10:12:45;101842.78;;;13.53;100.00
76358;BME280;65185;21.060;105.826;2024-03-02T10:15:12;101835.84;;;13.64;100.00
76358;BME280;65185;21.060;105.826;2024-03-02T10:17:39;101840.16;;;13.23;100.00
76358;BME280;65185;21.060;105.826;2024-03-02T10:20:25;101835.81;;;13.28;100.00
76358;BME280;65185;21.060;105.826;2024-03-02T10:22:52;101834.97;;;13.34;100.00
76358;BME280;65185;21.060;105.826;2024-03-02T10:25:29;101832.22;;;12.90;100.00
76358;BME280;65185;21.060;105.826;2024-03-02T10:27:59;101841.84;;;13.08;100.00
76358;BME280;65185;21.060;105.826;2024-03-02T10:30:27;101836.69;;;13.36;100.00
76358;BME280;65185;21.060;105.826;2024-03-02T10:32:55;101844.50;;;13.35;100.00
76358;BME280;65185;21.060;105.826;2024-03-02T10:35:23;101840.88;;;12.90;100.00
76358;BME280;65185;21.060;105.826;2024-03-02T10:37:50;101831.44;;;13.09;100.00
76358;BME280;65185;21.060;105.826;2024-03-02T10:40:17;101834.06;;;13.36;100.00
76358;BME280;65185;21.060;105.826;2024-03-02T10:42:45;101838.44;;;13.36;100.00
76358;BME280;65185;21.060;105.826;2024-03-02T10:45:12;101835.75;;;13.06;100.00
76358;BME280;65185;21.060;105.826;2024-03-02T10:47:43;101837.56;;;13.38;100.00
76358;BME280;65185;21.060;105.826;2024-03-02T10:50:10;101841.06;;;13.52;100.00
76358;BME280;65185;21.060;105.826;2024-03-02T10:52:40;101845.31;;;13.22;100.00
76358;BME280;65185;21.060;105.826;2024-03-02T10:55:10;101834.94;;;13.28;100.00
76358;BME280;65185;21.060;105.826;2024-03-02T10:57:54;101842.78;;;13.52;100.00
76358;BME280;65185;21.060;105.826;2024-03-02T11:00:24;101837.59;;;13.40;100.00
76358;BME280;65185;21.060;105.826;2024-03-02T11:03:07;101852.28;;;13.24;100.00
76358;BME280;65185;21.060;105.826;2024-03-02T11:05:39;101848.88;;;13.51;100.00
76358;BME280;65185;21.060;105.826;2024-03-02T11:08:14;101839.34;;;13.63;100.00
76358;BME280;65185;21.060;105.826;2024-03-02T11:10:54;101854.03;;;13.19;100.00
76358;BME280;65185;21.060;105.826;2024-03-02T11:13:30;101859.25;;;13.31;100.00
76358;BME280;65185;21.060;105.826;2024-03-02T11:16:09;101856.66;;;13.46;100.00
76358;BME280;65185;21.060;105.826;2024-03-02T11:18:39;101860.13;;;13.41;100.00
76358;BME280;65185;21.060;105.826;2024-03-02T11:21:07;101860.97;;;13.28;100.00
76358;BME280;65185;21.060;105.826;2024-03-02T11:23:36;101856.69;;;13.51;100.00
76358;BME280;65185;21.060;105.826;2024-03-02T11:26:22;101865.38;;;13.59;100.00
76358;BME280;65185;21.060;105.826;2024-03-02T11:28:51;101865.38;;;13.68;100.00
76358;BME280;65185;21.060;105.826;2024-03-02T11:31:18;101866.25;;;13.70;100.00
76358;BME280;65185;21.060;105.826;2024-03-02T11:33:45;101867.13;;;13.70;100.00
76358;BME280;65185;21.060;105.826;2024-03-02T11:36:16;101868.00;;;13.74;100.00
76358;BME280;65185;21.060;105.826;2024-03-02T11:38:43;101863.66;;;13.76;100.00
76358;BME280;65185;21.060;105.826;2024-03-02T11:41:14;101867.13;;;13.78;100.00
76358;BME280;65185;21.060;105.826;2024-03-02T11:43:44;101868.84;;;13.67;100.00
76358;BME280;65185;21.060;105.826;2024-03-02T11:46:11;101877.53;;;13.70;100.00
76358;BME280;65185;21.060;105.826;2024-03-02T11:48:39;101871.44;;;13.59;100.00
76358;BME280;65185;21.060;105.826;2024-03-02T11:51:06;101867.06;;;13.30;100.00
76358;BME280;65185;21.060;105.826;2024-03-02T11:53:33;101866.19;;;13.34;100.00
76358;BME280;65185;21.060;105.826;2024-03-02T11:56:02;101875.69;;;13.17;100.00
76358;BME280;65185;21.060;105.826;2024-03-02T11:58:35;101871.34;;;13.19;100.00
76358;BME280;65185;21.060;105.826;2024-03-02T12:01:02;101879.22;;;13.47;100.00
76358;BME280;65185;21.060;105.826;2024-03-02T12:03:29;101879.22;;;13.47;100.00
76358;BME280;65185;21.060;105.826;2024-03-02T12:05:56;101876.66;;;13.62;100.00
76358;BME280;65185;21.060;105.826;2024-03-02T12:08:23;101878.41;;;13.66;100.00
76358;BME280;65185;21.060;105.826;2024-03-02T12:10:57;101874.06;;;13.80;100.00
76358;BME280;65185;21.060;105.826;2024-03-02T12:13:24;101881.03;;;13.89;100.00
76358;BME280;65185;21.060;105.826;2024-03-02T12:15:54;101885.34;;;13.84;100.00
76358;BME280;65185;21.060;105.826;2024-03-02T12:18:24;101877.53;;;13.84;100.00
76358;BME280;65185;21.060;105.826;2024-03-02T12:20:55;101877.53;;;13.82;100.00
76358;BME280;65185;21.060;105.826;2024-03-02T12:23:25;101876.63;;;13.43;100.00
76358;BME280;65185;21.060;105.826;2024-03-02T12:25:52;101870.53;;;13.30;100.00
76358;BME280;65185;21.060;105.826;2024-03-02T12:28:19;101876.56;;;13.22;100.00
76358;BME280;65185;21.060;105.826;2024-03-02T12:30:46;101876.53;;;13.13;100.00
76358;BME280;65185;21.060;105.826;2024-03-02T12:33:14;101886.97;;;13.19;100.00
76358;BME280;65185;21.060;105.826;2024-03-02T12:35:40;101894.78;;;13.22;100.00
76358;BME280;65185;21.060;105.826;2024-03-02T12:38:08;101887.84;;;13.25;100.00